Latest Weather Observations for Shepparton

IDV60801

Issued at 9:02 am EDT Tuesday 21 February 2017 (issued every 30 minutes, with the page automatically refreshed every 10 minutes)

About weather observations | Map of weather stations | Latest weather observations for VIC | Other Formats
Station Details ID: 081125 Name: SHEPPARTON AIRPORT Lat: -36.43 Lon: 145.39 Height: 113.9 m
Data from the previous 72 hours. | See also: Recent months at Shepparton
Date/Time
EDT
Temp
°C
App
Temp
°C
Dew
Point
°C
Rel
Hum
%
Delta-T
°C
Wind Press
QNH
hPa
Press
MSL
hPa
Rain since
9am
mm
Dir  Spd
km/h
Gust
km/h
Spd
kts
Gust
kts
21/09:00am 14.4 13.0 8.8 69 2.8 SE 6 9 3 5 1021.5 1021.0 -
21/08:30am 12.6 11.1 9.1 79 1.8 SE 7 11 4 6 1021.3 1020.8 -
21/08:00am 11.2 9.7 9.3 88 1.0 SE 7 9 4 5 1020.7 1020.2 -
21/07:30am 8.3 7.4 7.7 96 0.3 S 2 6 1 3 1020.3 1019.8 -
21/07:00am 7.6 5.6 6.9 95 0.3 S 7 7 4 4 1019.8 1019.3 -
21/06:30am 8.3 7.7 7.5 95 0.4 CALM 0 0 0 0 1019.5 1019.0 -
21/06:00am 8.8 8.3 7.9 94 0.4 CALM 0 0 0 0 1019.4 1018.9 -
21/05:30am 8.6 8.0 7.4 92 0.6 CALM 0 0 0 0 1018.9 1018.5 -
21/05:00am 8.7 6.6 6.7 87 0.9 SSW 7 7 4 4 1018.8 1018.4 -
21/04:30am 9.3 7.3 7.3 87 1.0 SSW 7 7 4 4 1018.8 1018.4 -
21/04:00am 10.3 8.0 7.5 83 1.3 SSW 9 11 5 6 1018.7 1018.3 -
21/03:30am 10.4 7.8 7.6 83 1.4 S 11 15 6 8 1018.4 1018.0 -
21/03:00am 10.9 8.7 8.0 82 1.4 S 9 11 5 6 1018.4 1018.0 0.0
21/02:30am 11.6 9.8 8.1 79 1.7 S 7 9 4 5 1018.4 1018.0 -
21/02:00am 11.5 9.3 7.8 78 1.8 S 9 11 5 6 1018.6 1018.2 -
21/01:30am 12.3 10.6 8.2 76 2.0 SSE 7 9 4 5 1018.7 1018.3 -
21/01:00am 12.1 9.9 7.8 75 2.1 S 9 11 5 6 1018.7 1018.3 -
21/12:30am 12.9 11.1 8.0 72 2.4 SSE 7 9 4 5 1018.5 1018.1 -
21/12:00am 12.7 10.3 7.2 69 2.7 S 9 11 5 6 1018.4 1018.0 -
 
Date/Time
EDT
Temp
°C
App
Temp
°C
Dew
Point
°C
Rel
Hum
%
Delta-T
°C
Wind Press
QNH
hPa
Press
MSL
hPa
Rain since
9am
mm
Dir  Spd
km/h
Gust
km/h
Spd
kts
Gust
kts
20/11:30pm 13.6 11.2 7.2 65 3.1 SSE 9 11 5 6 1018.3 1017.9 -
20/11:00pm 13.4 10.5 6.3 62 3.4 S 11 13 6 7 1018.1 1017.7 -
20/10:30pm 14.4 11.3 5.7 56 4.2 S 11 13 6 7 1017.7 1017.3 -
20/10:00pm 14.3 11.4 4.9 53 4.4 S 9 11 5 6 1017.3 1016.8 -
20/09:30pm 14.8 11.9 4.8 51 4.7 SSW 9 13 5 7 1016.9 1016.4 -
20/09:00pm 16.2 13.3 4.6 46 5.5 WSW 9 11 5 6 1016.2 1015.7 0.0
20/08:30pm 17.1 14.1 4.1 42 6.1 WSW 9 11 5 6 1015.7 1015.2 -
20/08:00pm 18.4 15.3 3.5 37 7.0 WSW 9 13 5 7 1015.3 1014.8 -
20/07:30pm 19.7 16.6 3.8 35 7.6 SW 9 11 5 6 1014.9 1014.4 -
20/07:00pm 20.1 16.2 3.3 33 8.0 SW 13 17 7 9 1014.4 1013.9 -
20/06:30pm 20.4 16.9 3.6 33 8.0 WSW 11 17 6 9 1014.2 1013.7 -
20/06:00pm 20.2 15.5 3.4 33 8.0 SW 17 19 9 10 1014.2 1013.7 -
20/05:30pm 20.6 15.5 3.3 32 8.2 WSW 19 26 10 14 1014.0 1013.5 -
20/05:00pm 20.6 16.2 2.9 31 8.4 SW 15 22 8 12 1013.7 1013.2 -
20/04:30pm 21.3 16.1 3.5 31 8.6 SW 20 30 11 16 1013.6 1013.1 -
20/04:00pm 21.1 15.8 2.9 30 8.6 WSW 20 37 11 20 1013.4 1012.9 -
20/03:30pm 20.2 14.2 3.4 33 8.0 SW 24 35 13 19 1013.6 1013.1 -
20/03:00pm 21.0 16.5 4.1 33 8.2 WSW 17 30 9 16 1013.7 1013.2 -
20/02:30pm 19.9 15.4 5.9 40 7.0 W 19 28 10 15 1014.1 1013.6 -
20/02:00pm 19.6 16.1 5.6 40 6.9 WSW 13 26 7 14 1014.1 1013.6 -
20/01:30pm 19.6 15.2 6.4 42 6.6 W 19 30 10 16 1014.3 1013.8 -
20/01:00pm 17.9 14.3 6.7 48 5.6 W 15 28 8 15 1014.5 1014.0 -
20/12:30pm 16.9 13.0 7.0 52 4.9 SW 17 26 9 14 1014.9 1014.4 -
20/12:00pm 17.0 13.5 7.1 52 5.0 WSW 15 24 8 13 1014.9 1014.4 -
20/11:30am 16.9 12.9 6.7 51 5.1 SW 17 24 9 13 1015.0 1014.5 -
20/11:00am - - - - - - - - - - 1015.0 1014.5 -
20/10:30am - - - - - - - - - - 1015.2 1014.7 -
20/10:00am - - - - - - - - - - 1015.2 1014.7 -
20/09:30am - - - - - - - - - - 1015.0 1014.5 -
20/09:00am - - - - - - - - - - 1014.7 1014.2 -
20/08:30am - - - - - - - - - - 1014.4 1013.9 -
20/08:00am - - - - - - - - - - 1014.1 1013.6 -
20/07:30am - - - - - - - - - - 1013.7 1013.2 -
20/07:00am - - - - - - - - - - 1013.4 1012.9 -
20/06:30am 7.1 4.1 6.0 93 0.5 W 11 15 6 8 1013.1 1012.6 0.6
20/06:00am 7.7 4.0 6.5 92 0.6 W 15 17 8 9 1012.8 1012.3 0.6
20/05:30am 7.6 4.3 6.4 92 0.6 W 13 19 7 10 1012.3 1011.8 0.6
20/05:00am 7.6 4.3 6.4 92 0.6 W 13 15 7 8 1012.1 1011.6 0.6
20/04:30am 7.2 4.2 6.1 93 0.5 W 11 13 6 7 1012.0 1011.5 0.6
20/04:00am 7.3 4.7 5.9 91 0.6 W 9 11 5 6 1011.9 1011.4 0.6
20/03:30am 7.9 5.8 6.0 88 0.9 W 6 7 3 4 1011.8 1011.3 0.6
20/03:00am 8.4 6.4 6.2 86 1.0 WNW 6 7 3 4 1011.8 1011.3 0.6
20/02:30am 8.7 6.1 6.0 83 1.2 W 9 11 5 6 1011.9 1011.4 0.6
20/02:00am 9.5 6.1 6.0 79 1.6 WSW 13 17 7 9 1012.0 1011.5 0.6
20/01:30am 9.8 6.2 6.7 81 1.5 WSW 15 22 8 12 1012.1 1011.6 0.6
20/01:00am 9.3 6.7 5.9 79 1.6 WSW 9 11 5 6 1012.0 1011.5 0.6
20/12:30am 10.0 7.0 5.8 75 1.9 SW 11 15 6 8 1012.1 1011.6 0.6
20/12:00am 10.1 7.2 6.4 78 1.7 SW 11 15 6 8 1012.0 1011.5 0.6
 
Date/Time
EDT
Temp
°C
App
Temp
°C
Dew
Point
°C
Rel
Hum
%
Delta-T
°C
Wind Press
QNH
hPa
Press
MSL
hPa
Rain since
9am
mm
Dir  Spd
km/h
Gust
km/h
Spd
kts
Gust
kts
19/11:30pm 10.0 7.7 7.4 84 1.2 SSW 9 11 5 6 1011.9 1011.4 0.6
19/11:00pm 11.1 8.6 8.1 82 1.5 WSW 11 15 6 8 1011.8 1011.3 0.6
19/10:30pm 10.9 8.5 8.8 87 1.0 W 11 13 6 7 1011.5 1011.0 0.6
19/10:00pm 11.5 9.8 8.5 82 1.5 WSW 7 11 4 6 1011.2 1010.7 0.6
19/09:30pm 12.3 10.4 9.0 80 1.7 SSW 9 13 5 7 1011.0 1010.5 0.6
19/09:00pm 12.2 11.0 9.4 83 1.4 SSW 6 11 3 6 1010.5 1010.0 0.6
19/08:30pm 12.5 10.8 9.9 84 1.3 WSW 9 17 5 9 1011.1 1010.6 0.6
19/08:00pm 12.6 11.0 8.9 78 1.9 WNW 7 9 4 5 1010.2 1009.7 0.6
19/07:30pm 13.2 10.9 9.1 76 2.1 SSW 11 15 6 8 1010.0 1009.6 0.2
19/07:00pm 14.0 10.5 8.8 71 2.6 S 17 24 9 13 1009.4 1008.9 0.2
19/06:30pm 14.3 9.5 8.7 69 2.8 SSW 24 33 13 18 1009.0 1008.5 0.2
19/06:00pm 13.7 9.0 10.5 81 1.7 SW 26 33 14 18 1009.1 1008.6 0.2
19/05:43pm 15.6 10.0 8.8 64 3.5 WSW 28 48 15 26 1008.9 1008.4 0.0
19/05:30pm 16.9 11.2 6.7 51 5.1 WSW 26 41 14 22 1008.3 1007.8 0.0
19/05:00pm 18.0 12.8 7.1 49 5.5 WSW 24 41 13 22 1007.9 1007.4 0.0
19/04:30pm 18.7 14.2 8.4 51 5.3 SW 22 30 12 16 1007.9 1007.4 0.0
19/04:11pm 15.8 11.8 9.0 64 3.5 W 20 33 11 18 1008.1 1007.6 0.0
19/04:00pm 15.8 8.6 7.8 59 4.0 W 35 59 19 32 1008.3 1007.8 0.0
19/03:56pm 18.9 12.8 4.7 39 6.9 WNW 26 54 14 29 1008.0 1007.5 0.0
19/03:30pm 19.1 13.2 3.7 36 7.3 WNW 24 41 13 22 1008.0 1007.5 0.0
19/03:00pm 21.7 15.3 5.2 34 8.2 WNW 28 44 15 24 1008.4 1007.9 0.0
19/02:30pm 20.1 14.6 4.2 35 7.7 WNW 22 35 12 19 1009.0 1008.5 0.0
19/02:00pm 18.8 13.9 4.9 40 6.8 WNW 20 30 11 16 1009.6 1009.1 0.0
19/01:30pm 18.3 13.5 4.8 41 6.5 NW 19 32 10 17 1009.9 1009.5 0.0
19/01:00pm 17.7 13.2 4.3 41 6.4 WNW 17 26 9 14 1010.5 1010.0 0.0
19/12:30pm 17.0 12.4 3.7 41 6.2 WNW 17 26 9 14 1011.0 1010.5 0.0
19/12:00pm 18.1 14.1 4.7 41 6.4 NW 15 22 8 12 1011.4 1010.9 0.0
19/11:30am 17.0 12.6 5.0 45 5.8 WSW 17 28 9 15 1011.7 1011.2 0.0
19/11:00am 16.1 11.1 4.8 47 5.4 W 20 30 11 16 1012.1 1011.6 0.0
19/10:30am 16.0 11.8 5.6 50 5.0 W 17 28 9 15 1012.3 1011.8 0.0
19/10:00am 15.1 10.8 5.3 52 4.7 W 17 26 9 14 1012.5 1012.0 0.0
19/09:30am 13.9 10.0 5.3 56 4.1 W 15 22 8 12 1012.4 1011.9 0.0
19/09:00am 13.1 9.3 6.0 62 3.4 W 15 22 8 12 1012.3 1011.8 0.0
19/08:30am 11.5 8.5 6.2 70 2.5 WNW 11 15 6 8 1012.1 1011.6 0.0
19/08:00am 10.7 8.1 6.1 73 2.2 WSW 9 13 5 7 1012.0 1011.5 0.0
19/07:30am 9.0 7.1 6.6 85 1.1 W 6 7 3 4 1011.8 1011.3 0.0
19/07:00am 8.6 6.4 6.1 84 1.2 SW 7 7 4 4 1011.6 1011.1 0.0
19/06:30am 8.5 5.8 5.4 81 1.4 WSW 9 11 5 6 1011.5 1011.0 0.0
19/06:00am 8.2 5.8 5.3 82 1.3 WSW 7 9 4 5 1011.3 1010.8 0.0
19/05:30am 8.6 6.3 5.9 83 1.2 WSW 7 11 4 6 1011.4 1010.9 0.0
19/05:00am 8.5 5.7 5.3 80 1.4 WSW 9 13 5 7 1011.2 1010.7 0.0
19/04:30am 9.1 6.4 5.7 79 1.6 SW 9 13 5 7 1011.3 1010.8 0.0
19/04:00am 9.9 7.2 5.7 75 1.9 SW 9 11 5 6 1011.4 1010.9 0.0
19/03:30am 10.0 6.9 5.6 74 2.0 SW 11 15 6 8 1011.5 1011.0 0.0
19/03:00am 10.3 7.2 5.5 72 2.2 SW 11 13 6 7 1011.6 1011.1 0.0
19/02:30am 10.9 8.1 5.2 68 2.6 SSW 9 13 5 7 1011.8 1011.3 0.0
19/02:00am 11.6 8.4 5.3 65 2.9 SSW 11 13 6 7 1012.0 1011.5 0.0
19/01:30am 12.6 9.4 5.3 61 3.4 SSW 11 17 6 9 1012.2 1011.7 0.0
19/01:00am 12.5 8.9 5.2 61 3.4 SSW 13 15 7 8 1012.1 1011.6 0.0
19/12:30am 12.3 9.0 4.8 60 3.5 SSW 11 15 6 8 1012.0 1011.5 0.0
19/12:00am 12.7 9.4 4.7 58 3.7 SSW 11 15 6 8 1011.8 1011.3 0.0
 
Date/Time
EDT
Temp
°C
App
Temp
°C
Dew
Point
°C
Rel
Hum
%
Delta-T
°C
Wind Press
QNH
hPa
Press
MSL
hPa
Rain since
9am
mm
Dir  Spd
km/h
Gust
km/h
Spd
kts
Gust
kts
18/11:30pm 13.7 10.0 4.6 54 4.2 SSW 13 17 7 9 1011.7 1011.2 0.0
18/11:00pm 14.4 10.7 4.4 51 4.6 S 13 17 7 9 1011.5 1011.0 0.0
18/10:30pm 14.8 11.0 3.9 48 5.0 S 13 17 7 9 1011.4 1010.9 0.0
18/10:00pm 15.0 11.1 3.5 46 5.3 S 13 19 7 10 1011.2 1010.7 0.0
18/09:52pm 15.7 11.9 3.8 45 5.5 S 13 17 7 9 1011.2 1010.7 0.0
18/09:30pm 15.5 12.0 3.3 44 5.6 S 11 13 6 7 1011.0 1010.5 0.0
18/09:16pm 16.2 12.6 2.9 41 6.1 S 11 13 6 7 1010.8 1010.3 0.0
18/09:00pm 16.7 12.6 2.3 38 6.5 S 13 15 7 8 1010.6 1010.1 0.0
18/08:30pm 18.1 13.8 1.2 32 7.6 SSW 13 15 7 8 1010.4 1009.9 0.0
18/08:00pm 19.4 14.7 0.9 29 8.3 S 15 19 8 10 1009.9 1009.5 0.0
18/07:30pm 20.1 14.0 0.5 27 8.8 SSW 22 30 12 16 1009.5 1009.0 0.0
18/07:00pm 21.0 15.2 -0.3 24 9.5 SSW 20 26 11 14 1009.1 1008.6 0.0
18/06:30pm 21.3 15.1 -0.1 24 9.6 SSW 22 28 12 15 1009.1 1008.6 0.0
18/06:00pm 21.6 15.9 -0.4 23 9.8 WSW 19 37 10 20 1009.1 1008.6 0.0
18/05:30pm 21.9 14.9 -0.8 22 10.1 WSW 26 35 14 19 1008.9 1008.4 0.0
18/05:00pm 22.2 15.3 0.1 23 10.0 WSW 26 33 14 18 1009.0 1008.5 0.0
18/04:30pm 22.4 15.1 0.3 23 10.1 WSW 28 43 15 23 1009.1 1008.6 0.0
18/04:00pm 21.9 15.0 -0.1 23 9.9 SW 26 35 14 19 1009.3 1008.8 0.0
18/03:45pm 22.5 16.4 0.4 23 10.1 WSW 22 46 12 25 1009.3 1008.8 0.0
18/03:30pm 20.6 13.8 1.0 27 8.9 SW 26 35 14 19 1009.6 1009.1 0.0
18/03:00pm 20.2 12.9 0.1 26 9.0 WSW 28 43 15 23 1010.0 1009.6 0.0
18/02:30pm 21.2 14.1 1.5 27 9.1 WSW 28 43 15 23 1010.0 1009.6 0.0
18/02:00pm 20.0 13.4 1.9 30 8.4 W 26 37 14 20 1010.4 1009.9 0.0
18/01:30pm 19.5 13.4 2.8 33 7.8 WSW 24 32 13 17 1010.6 1010.1 0.0
18/01:00pm 19.1 13.5 3.7 36 7.3 W 22 32 12 17 1010.7 1010.2 0.0
18/12:30pm 19.5 13.5 3.6 35 7.6 WSW 24 32 13 17 1010.7 1010.2 0.0
18/12:00pm 18.6 14.4 3.6 37 7.1 SSW 15 32 8 17 1011.0 1010.5 0.0
18/11:30am 18.7 13.9 4.8 40 6.7 SW 19 26 10 14 1011.2 1010.7 0.0
18/11:00am 18.3 13.2 5.8 44 6.2 SSW 22 32 12 17 1011.5 1011.0 0.0
18/10:30am 18.0 12.7 6.8 48 5.6 SSW 24 33 13 18 1011.3 1010.8 0.0
18/10:00am 17.7 13.4 7.7 52 5.1 SW 20 28 11 15 1011.1 1010.6 0.0
18/09:30am 17.0 12.0 6.5 50 5.2 SSW 22 30 12 16 1010.9 1010.4 0.0

Other Formats:

Comma delimited format used in spreadsheet applications
http://www.bom.gov.au/fwo/IDV60801/IDV60801.94875.axf

JavaScript Object Notation format (JSON) in row-major order
http://www.bom.gov.au/fwo/IDV60801/IDV60801.94875.json